createdAt,value
2022-11-18T00:01:25.825Z,16.27
2022-11-18T00:03:54.283Z,17.00
2022-11-18T00:06:24.295Z,16.33
2022-11-18T00:08:52.274Z,17.50
2022-11-18T00:11:36.055Z,16.77
2022-11-18T00:14:23.001Z,16.93
2022-11-18T00:16:53.948Z,15.93
2022-11-18T00:19:23.059Z,16.57
2022-11-18T00:21:51.063Z,12.60
2022-11-18T00:24:19.538Z,14.93
2022-11-18T00:26:47.736Z,16.83
2022-11-18T00:29:17.648Z,16.70
2022-11-18T00:31:46.061Z,17.13
2022-11-18T00:34:15.397Z,14.73
2022-11-18T00:36:44.621Z,16.13
2022-11-18T00:39:12.897Z,17.10
2022-11-18T00:41:59.167Z,11.23
2022-11-18T00:44:28.559Z,17.10
2022-11-18T00:46:56.660Z,13.13
2022-11-18T00:49:26.212Z,15.63
2022-11-18T00:51:54.102Z,14.07
2022-11-18T00:54:21.941Z,14.47
2022-11-18T00:56:50.016Z,16.80
2022-11-18T00:59:18.234Z,15.20
2022-11-18T01:01:49.116Z,15.03
2022-11-18T01:04:17.324Z,14.90
2022-11-18T01:06:45.266Z,14.00
2022-11-18T01:09:13.051Z,12.73
2022-11-18T01:11:58.366Z,15.00
2022-11-18T01:14:26.419Z,12.70
2022-11-18T01:16:57.558Z,15.77
2022-11-18T01:19:26.094Z,15.07
2022-11-18T01:21:54.189Z,15.87
2022-11-18T01:24:21.998Z,13.80
2022-11-18T01:26:50.044Z,14.47
2022-11-18T01:29:18.674Z,12.80
2022-11-18T01:32:09.325Z,13.20
2022-11-18T01:34:36.056Z,13.03
2022-11-18T01:37:03.943Z,14.53
2022-11-18T01:39:32.284Z,14.97
2022-11-18T01:42:00.352Z,15.17
2022-11-18T01:45:05.094Z,13.73
2022-11-18T01:47:37.273Z,13.83
2022-11-18T01:50:07.784Z,14.60
2022-11-18T01:52:36.612Z,14.20
2022-11-18T01:55:09.934Z,15.53
2022-11-18T01:57:37.903Z,14.20
2022-11-18T02:00:09.114Z,14.67
2022-11-18T02:02:38.620Z,15.03
2022-11-18T02:05:11.709Z,15.47
2022-11-18T02:07:43.333Z,15.90
2022-11-18T02:10:19.612Z,14.13
2022-11-18T02:12:47.639Z,11.87
2022-11-18T02:15:15.665Z,15.00
2022-11-18T02:17:53.792Z,13.80
2022-11-18T02:20:32.172Z,11.77
2022-11-18T02:23:41.482Z,15.70
2022-11-18T02:26:46.261Z,10.27
2022-11-18T02:29:20.243Z,15.70
2022-11-18T02:31:54.945Z,15.20
2022-11-18T02:34:34.588Z,13.97
2022-11-18T02:37:07.661Z,13.30
2022-11-18T02:39:39.313Z,15.07
2022-11-18T02:42:12.605Z,14.63
2022-11-18T02:44:47.005Z,14.60
2022-11-18T02:47:17.818Z,14.10
2022-11-18T02:49:49.474Z,14.40
2022-11-18T02:52:20.322Z,13.60
2022-11-18T02:54:50.792Z,12.83
2022-11-18T02:57:20.790Z,14.13
2022-11-18T02:59:50.345Z,12.97
2022-11-18T03:02:19.929Z,15.87
2022-11-18T03:04:49.511Z,14.40
2022-11-18T03:07:22.888Z,14.17
2022-11-18T03:09:53.182Z,12.33
2022-11-18T03:12:30.900Z,14.60
2022-11-18T03:15:08.730Z,15.90
2022-11-18T03:17:47.690Z,12.47
2022-11-18T03:20:22.081Z,15.87
2022-11-18T03:22:56.262Z,15.60
2022-11-18T03:25:32.593Z,14.10
2022-11-18T03:28:08.514Z,15.03
2022-11-18T03:30:41.117Z,12.80
2022-11-18T03:33:13.246Z,14.40
2022-11-18T03:35:47.386Z,15.15
2022-11-18T03:38:19.756Z,16.50
2022-11-18T03:40:52.402Z,15.33
2022-11-18T03:43:24.423Z,16.23
2022-11-18T03:45:59.135Z,16.13
2022-11-18T03:48:30.338Z,17.67
2022-11-18T03:51:02.502Z,17.77
2022-11-18T03:53:35.202Z,12.68
2022-11-18T03:56:10.530Z,13.23
2022-11-18T03:58:48.950Z,14.90
2022-11-18T04:01:22.787Z,12.43
2022-11-18T04:03:50.845Z,15.82
2022-11-18T04:06:25.642Z,13.13
2022-11-18T04:08:59.695Z,17.52
2022-11-18T04:11:51.126Z,15.25
2022-11-18T04:14:23.480Z,14.32
2022-11-18T04:16:54.323Z,14.40
2022-11-18T04:19:22.848Z,17.92
2022-11-18T04:21:53.798Z,17.95
2022-11-18T04:24:25.149Z,16.92
2022-11-18T04:26:53.831Z,17.02
2022-11-18T04:29:22.009Z,17.58
2022-11-18T04:31:50.997Z,17.40
2022-11-18T04:34:20.798Z,17.00
2022-11-18T04:36:48.810Z,14.25
2022-11-18T04:39:18.298Z,15.82
2022-11-18T04:41:59.072Z,17.00
2022-11-18T04:44:28.186Z,17.65
2022-11-18T04:46:57.527Z,18.48
2022-11-18T04:49:28.097Z,14.65
2022-11-18T04:51:56.855Z,17.13
2022-11-18T04:54:26.082Z,19.63
2022-11-18T04:56:54.398Z,19.25
2022-11-18T04:59:24.242Z,18.75
2022-11-18T05:01:53.298Z,19.10
2022-11-18T05:04:22.944Z,19.05
2022-11-18T05:06:53.132Z,21.00
2022-11-18T05:09:21.885Z,19.08
2022-11-18T05:12:08.616Z,16.88
2022-11-18T05:14:38.637Z,17.17
2022-11-18T05:17:10.736Z,19.60
2022-11-18T05:19:42.382Z,19.00
2022-11-18T05:22:14.266Z,19.08
2022-11-18T05:24:42.056Z,20.48
2022-11-18T05:27:09.882Z,18.95
2022-11-18T05:29:37.888Z,17.10
2022-11-18T05:32:06.494Z,18.75
2022-11-18T05:34:34.420Z,19.95
2022-11-18T05:37:03.603Z,19.07
2022-11-18T05:39:32.998Z,20.30
2022-11-18T05:42:18.572Z,17.90
2022-11-18T05:44:46.734Z,18.48
2022-11-18T05:47:15.035Z,18.35
2022-11-18T05:49:42.782Z,18.80
2022-11-18T05:52:10.773Z,20.67
2022-11-18T05:54:45.708Z,15.88
2022-11-18T05:57:13.615Z,15.55
2022-11-18T05:59:41.397Z,18.30
2022-11-18T06:02:14.759Z,18.42
2022-11-18T06:04:46.267Z,11.73
2022-11-18T06:07:20.230Z,14.30
2022-11-18T06:09:52.914Z,13.18
2022-11-18T06:12:24.307Z,15.48
2022-11-18T06:14:56.079Z,13.35
2022-11-18T06:17:27.753Z,15.13
2022-11-18T06:19:56.061Z,12.73
2022-11-18T06:22:24.033Z,13.85
2022-11-18T06:24:53.358Z,14.25
2022-11-18T06:27:21.601Z,15.82
2022-11-18T06:29:49.479Z,19.10
2022-11-18T06:32:17.441Z,13.57
2022-11-18T06:34:45.212Z,16.98
2022-11-18T06:37:17.243Z,13.63
2022-11-18T06:39:45.060Z,15.38
2022-11-18T06:42:35.401Z,13.27
2022-11-18T06:45:02.549Z,13.57
2022-11-18T06:47:30.559Z,11.15
2022-11-18T06:49:58.463Z,15.13
2022-11-18T06:52:26.321Z,13.75
2022-11-18T06:54:54.415Z,15.43
2022-11-18T06:57:23.894Z,12.00
2022-11-18T06:59:51.740Z,13.48
2022-11-18T07:02:19.664Z,13.20
2022-11-18T07:04:47.647Z,14.23
2022-11-18T07:07:15.779Z,10.48
2022-11-18T07:09:44.611Z,13.38
2022-11-18T07:12:13.021Z,14.52
2022-11-18T07:14:42.164Z,14.55
2022-11-18T07:17:10.023Z,11.30
2022-11-18T07:19:37.827Z,14.45
2022-11-18T07:22:05.865Z,14.95
2022-11-18T07:24:33.783Z,16.23
2022-11-18T07:27:01.730Z,12.30
2022-11-18T07:29:29.501Z,15.00
2022-11-18T07:31:58.931Z,14.07
2022-11-18T07:34:26.838Z,14.52
2022-11-18T07:36:54.997Z,14.75
2022-11-18T07:39:23.063Z,13.93
2022-11-18T07:41:51.022Z,11.60
2022-11-18T07:44:18.893Z,14.27
2022-11-18T07:46:46.875Z,12.43
2022-11-18T07:49:16.753Z,14.93
2022-11-18T07:51:45.050Z,11.68
2022-11-18T07:54:16.530Z,12.15
2022-11-18T07:56:44.557Z,13.85
2022-11-18T07:59:12.613Z,13.73
2022-11-18T08:01:40.579Z,12.40
2022-11-18T08:04:11.019Z,12.45
2022-11-18T08:06:41.365Z,12.20
2022-11-18T08:09:09.979Z,9.00
2022-11-18T08:11:38.366Z,13.13
2022-11-18T08:14:06.180Z,15.35
2022-11-18T08:16:34.316Z,12.82
2022-11-18T08:19:02.360Z,16.48
2022-11-18T08:21:30.629Z,12.10
2022-11-18T08:23:59.921Z,16.08
2022-11-18T08:26:29.486Z,11.35
2022-11-18T08:28:58.909Z,11.75
2022-11-18T08:31:28.239Z,10.90
2022-11-18T08:34:00.442Z,13.95
2022-11-18T08:36:31.028Z,10.93
2022-11-18T08:39:03.308Z,13.65
2022-11-18T08:41:34.691Z,10.32
2022-11-18T08:44:03.228Z,12.60
2022-11-18T08:46:31.222Z,12.35
2022-11-18T08:49:01.933Z,15.07
2022-11-18T08:51:30.139Z,12.30
2022-11-18T08:53:58.029Z,11.90
2022-11-18T08:56:27.355Z,13.77
2022-11-18T08:58:55.630Z,13.25
2022-11-18T09:01:24.068Z,12.73
2022-11-18T09:03:52.015Z,14.45
2022-11-18T09:06:22.755Z,11.15
2022-11-18T09:08:50.583Z,13.73
2022-11-18T09:11:20.146Z,13.63
2022-11-18T09:14:38.986Z,12.43
2022-11-18T09:16:40.863Z,12.23
2022-11-18T09:19:32.145Z,9.85
2022-11-18T09:21:56.554Z,14.43
2022-11-18T09:24:24.553Z,14.35
2022-11-18T09:26:53.576Z,13.73
2022-11-18T09:29:26.136Z,13.48
2022-11-18T09:31:54.324Z,10.73
2022-11-18T09:34:22.574Z,11.25
2022-11-18T09:36:50.488Z,9.30
2022-11-18T09:39:18.770Z,13.35
2022-11-18T09:41:48.594Z,13.85
2022-11-18T09:44:35.127Z,12.80
2022-11-18T09:47:15.463Z,12.73
2022-11-18T09:49:45.806Z,11.73
2022-11-18T09:52:19.607Z,10.75
2022-11-18T09:54:48.220Z,10.70
2022-11-18T09:57:17.972Z,10.07
2022-11-18T09:59:48.123Z,8.63
2022-11-18T10:02:30.310Z,7.43
2022-11-18T10:05:02.758Z,6.28
2022-11-18T10:07:40.592Z,9.98
2022-11-18T10:10:16.246Z,8.63
2022-11-18T10:12:50.710Z,8.85
2022-11-18T10:15:25.274Z,8.05
2022-11-18T10:18:02.427Z,6.85
2022-11-18T10:20:42.225Z,6.00
2022-11-18T10:23:16.717Z,7.38
2022-11-18T10:25:44.830Z,8.13
2022-11-18T10:28:19.038Z,6.53
2022-11-18T10:30:48.193Z,5.90
2022-11-18T10:33:26.744Z,6.93
2022-11-18T10:36:12.874Z,7.10
2022-11-18T10:38:43.241Z,6.85
2022-11-18T10:41:16.566Z,7.95
2022-11-18T10:43:50.543Z,7.07
2022-11-18T10:46:26.441Z,8.48
2022-11-18T10:49:16.462Z,7.82
2022-11-18T10:51:49.907Z,8.23
2022-11-18T10:54:21.068Z,7.50
2022-11-18T10:56:57.570Z,6.93
2022-11-18T10:59:32.587Z,7.63
2022-11-18T11:02:13.978Z,7.00
2022-11-18T11:04:41.952Z,8.15
2022-11-18T11:07:18.133Z,8.00
2022-11-18T11:09:46.380Z,6.38
2022-11-18T11:12:16.648Z,8.20
2022-11-18T11:14:52.281Z,8.10
2022-11-18T11:17:27.363Z,7.00
2022-11-18T11:20:04.786Z,6.57
2022-11-18T11:22:32.856Z,6.63
2022-11-18T11:25:00.768Z,6.15
2022-11-18T11:30:38.643Z,8.07
2022-11-18T11:33:23.833Z,5.25
2022-11-18T11:36:11.075Z,7.60
2022-11-18T11:38:58.666Z,7.20
2022-11-18T11:41:32.184Z,7.80
2022-11-18T11:44:13.909Z,7.35
2022-11-18T11:47:12.356Z,8.18
2022-11-18T11:49:53.632Z,7.18
2022-11-18T11:52:32.976Z,7.55
2022-11-18T11:55:15.965Z,6.63
2022-11-18T11:57:59.239Z,7.15
2022-11-18T12:00:28.801Z,7.43
2022-11-18T12:03:13.281Z,6.63
2022-11-18T12:05:43.263Z,7.82
2022-11-18T12:08:15.338Z,8.52
2022-11-18T12:10:47.956Z,6.53
2022-11-18T12:13:37.438Z,7.47
2022-11-18T12:16:22.364Z,6.97
2022-11-18T12:18:56.048Z,5.68
2022-11-18T12:22:03.981Z,6.03
2022-11-18T12:24:36.316Z,7.03
2022-11-18T12:27:07.791Z,5.53
2022-11-18T12:29:59.045Z,4.78
2022-11-18T12:32:34.737Z,6.00
2022-11-18T12:35:05.410Z,6.00
2022-11-18T12:37:45.969Z,6.05
2022-11-18T12:40:42.466Z,6.47
2022-11-18T12:44:04.438Z,6.33
2022-11-18T12:46:54.323Z,5.60
2022-11-18T12:50:11.337Z,6.10
2022-11-18T12:52:54.757Z,4.43
2022-11-18T12:55:27.542Z,4.45
2022-11-18T12:57:58.493Z,6.13
2022-11-18T13:00:33.283Z,5.78
2022-11-18T13:03:02.723Z,4.85
2022-11-18T13:05:34.024Z,5.28
2022-11-18T13:08:15.712Z,7.28
2022-11-18T13:10:53.190Z,6.45
2022-11-18T13:13:28.296Z,7.15
2022-11-18T13:16:17.136Z,6.05
2022-11-18T13:18:52.088Z,4.78
2022-11-18T13:21:42.935Z,5.68
2022-11-18T13:24:14.786Z,5.60
2022-11-18T13:26:44.135Z,6.45
2022-11-18T13:29:37.696Z,6.22
2022-11-18T13:32:18.673Z,5.50
2022-11-18T13:34:48.718Z,5.95
2022-11-18T13:37:21.052Z,6.65
2022-11-18T13:39:50.711Z,5.78
2022-11-18T13:42:22.183Z,4.20
2022-11-18T13:44:55.161Z,5.18
2022-11-18T13:47:30.056Z,5.90
2022-11-18T13:50:04.654Z,5.97
2022-11-18T13:52:37.031Z,6.05
2022-11-18T13:55:10.442Z,5.65
2022-11-18T13:57:41.517Z,5.75
2022-11-18T14:00:23.219Z,4.68
2022-11-18T14:02:57.089Z,5.20
2022-11-18T14:05:25.759Z,5.78
2022-11-18T14:08:07.214Z,5.55
2022-11-18T14:10:43.646Z,4.80
2022-11-18T14:13:20.125Z,5.50
2022-11-18T14:15:48.266Z,4.80
2022-11-18T14:18:24.295Z,4.10
2022-11-18T14:20:53.951Z,5.75
2022-11-18T14:23:28.389Z,5.63
2022-11-18T14:25:58.410Z,4.78
2022-11-18T14:28:28.502Z,4.57
2022-11-18T14:30:59.318Z,4.90
2022-11-18T14:33:28.707Z,5.93
2022-11-18T14:35:59.497Z,5.68
2022-11-18T14:38:43.536Z,5.93
2022-11-18T14:41:44.310Z,3.65
2022-11-18T14:44:13.844Z,5.05
2022-11-18T14:46:47.582Z,4.32
2022-11-18T14:49:18.933Z,4.15
2022-11-18T14:51:47.030Z,5.25
2022-11-18T14:57:07.156Z,3.75
2022-11-18T14:59:34.995Z,4.03
2022-11-18T15:00:27.206Z,4.88
2022-11-18T15:02:02.914Z,3.72
2022-11-18T15:04:30.825Z,7.13
2022-11-18T15:06:58.749Z,6.82
2022-11-18T15:09:26.810Z,4.40
2022-11-18T15:11:54.773Z,4.53
2022-11-18T15:14:23.940Z,3.78
2022-11-18T15:16:51.765Z,3.90
2022-11-18T15:19:19.742Z,3.63
2022-11-18T15:21:47.531Z,3.80
2022-11-18T15:24:15.793Z,3.78
2022-11-18T15:26:45.972Z,3.88
2022-11-18T15:29:18.476Z,3.83
2022-11-18T15:31:48.442Z,3.70
2022-11-18T15:34:18.151Z,4.85
2022-11-18T15:36:46.503Z,4.30
2022-11-18T15:39:14.511Z,6.03
2022-11-18T15:41:43.826Z,5.22
2022-11-18T15:44:12.742Z,5.07
2022-11-18T15:46:41.454Z,4.80
2022-11-18T15:49:14.635Z,5.30
2022-11-18T15:51:42.662Z,4.60
2022-11-18T15:54:10.552Z,4.50
2022-11-18T15:56:39.738Z,4.00
2022-11-18T15:59:09.923Z,4.28
2022-11-18T16:01:40.338Z,4.15
2022-11-18T16:04:11.099Z,5.47
2022-11-18T16:06:39.643Z,4.45
2022-11-18T16:09:07.833Z,5.05
2022-11-18T16:11:53.155Z,4.60
2022-11-18T16:14:22.928Z,4.90
2022-11-18T16:16:54.019Z,4.88
2022-11-18T16:19:24.931Z,5.28
2022-11-18T16:21:54.731Z,7.13
2022-11-18T16:24:24.722Z,9.73
2022-11-18T16:26:52.949Z,5.40
2022-11-18T16:29:21.320Z,6.18
2022-11-18T16:31:52.266Z,5.50
2022-11-18T16:34:22.067Z,5.50
2022-11-18T16:36:53.663Z,4.70
2022-11-18T16:39:25.040Z,7.55
2022-11-18T16:41:54.744Z,5.22
2022-11-18T16:44:23.218Z,5.88
2022-11-18T16:46:52.630Z,5.13
2022-11-18T16:49:22.485Z,6.10
2022-11-18T16:51:54.363Z,5.20
2022-11-18T16:54:24.270Z,4.97
2022-11-18T16:56:53.138Z,6.60
2022-11-18T16:59:22.492Z,4.93
2022-11-18T17:01:51.432Z,5.25
2022-11-18T17:04:19.940Z,6.20
2022-11-18T17:06:48.449Z,7.10
2022-11-18T17:09:19.656Z,5.60
2022-11-18T17:11:48.154Z,6.70
2022-11-18T17:14:16.535Z,5.53
2022-11-18T17:16:44.614Z,6.43
2022-11-18T17:19:15.784Z,6.45
2022-11-18T17:21:44.340Z,5.50
2022-11-18T17:24:21.029Z,5.63
2022-11-18T17:26:49.177Z,4.85
2022-11-18T17:29:17.496Z,4.68
2022-11-18T17:31:45.588Z,6.30
2022-11-18T17:34:14.703Z,6.30
2022-11-18T17:36:43.489Z,6.50
2022-11-18T17:39:13.285Z,5.20
2022-11-18T17:42:00.365Z,5.20
2022-11-18T17:44:29.099Z,5.28
2022-11-18T17:46:57.113Z,5.68
2022-11-18T17:49:25.834Z,5.68
2022-11-18T17:51:53.759Z,7.20
2022-11-18T17:54:22.423Z,6.18
2022-11-18T17:56:52.968Z,6.32
2022-11-18T17:59:22.893Z,5.85
2022-11-18T18:01:57.301Z,6.90
2022-11-18T18:04:26.961Z,6.15
2022-11-18T18:06:55.269Z,6.75
2022-11-18T18:09:30.152Z,7.70
2022-11-18T18:12:20.833Z,6.25
2022-11-18T18:14:54.765Z,6.53
2022-11-18T18:17:22.629Z,6.75
2022-11-18T18:19:50.420Z,6.43
2022-11-18T18:22:18.271Z,6.22
2022-11-18T18:24:46.193Z,6.25
2022-11-18T18:27:15.373Z,6.50
2022-11-18T18:29:43.167Z,6.40
2022-11-18T18:32:11.028Z,7.35
2022-11-18T18:34:38.811Z,7.70
2022-11-18T18:37:06.679Z,7.15
2022-11-18T18:39:34.417Z,7.53
2022-11-18T18:42:03.565Z,6.75
2022-11-18T18:44:46.745Z,7.00
2022-11-18T18:47:14.844Z,7.20
2022-11-18T18:49:42.760Z,5.90
2022-11-18T18:52:10.681Z,6.20
2022-11-18T18:54:38.567Z,7.80
2022-11-18T18:57:06.522Z,6.65
2022-11-18T18:59:36.555Z,6.88
2022-11-18T19:02:05.047Z,6.47
2022-11-18T19:04:32.954Z,6.90
2022-11-18T19:07:00.998Z,6.20
2022-11-18T19:09:29.457Z,7.32
2022-11-18T19:12:14.831Z,7.43
2022-11-18T19:14:44.313Z,6.38
2022-11-18T19:17:48.073Z,6.45
2022-11-18T19:20:36.689Z,7.18
2022-11-18T19:23:10.092Z,7.22
2022-11-18T19:25:38.777Z,7.40
2022-11-18T19:28:06.589Z,7.45
2022-11-18T19:30:35.945Z,7.55
2022-11-18T19:33:05.525Z,7.72
2022-11-18T19:35:33.278Z,7.18
2022-11-18T19:38:01.063Z,6.68
2022-11-18T19:40:28.925Z,7.55
2022-11-18T19:42:57.995Z,6.90
2022-11-18T19:45:25.948Z,7.05
2022-11-18T19:47:55.290Z,6.88
2022-11-18T19:50:23.098Z,6.55
2022-11-18T19:52:51.026Z,7.90
2022-11-18T19:55:18.858Z,8.05
2022-11-18T19:57:46.646Z,7.57
2022-11-18T20:00:15.639Z,6.75
2022-11-18T20:02:43.504Z,7.72
2022-11-18T20:05:30.121Z,6.55
2022-11-18T20:07:57.990Z,6.68
2022-11-18T20:10:25.841Z,7.25
2022-11-18T20:12:53.751Z,7.22
2022-11-18T20:15:21.525Z,8.43
2022-11-18T20:17:49.378Z,6.97
2022-11-18T20:20:18.738Z,8.38
2022-11-18T20:22:46.761Z,7.65
2022-11-18T20:25:15.527Z,8.00
2022-11-18T20:27:43.486Z,7.10
2022-11-18T20:30:12.241Z,6.90
2022-11-18T20:32:40.141Z,7.90
2022-11-18T20:35:08.370Z,8.02
2022-11-18T20:37:37.730Z,7.60
2022-11-18T20:40:06.621Z,8.30
2022-11-18T20:42:52.918Z,6.75
2022-11-18T20:45:21.076Z,8.13
2022-11-18T20:48:01.943Z,8.02
2022-11-18T20:50:29.917Z,7.72
2022-11-18T20:52:59.190Z,7.80
2022-11-18T20:55:29.178Z,6.38
2022-11-18T20:57:56.999Z,7.68
2022-11-18T21:00:24.880Z,8.13
2022-11-18T21:02:52.711Z,6.82
2022-11-18T21:05:20.509Z,7.28
2022-11-18T21:07:50.112Z,6.93
2022-11-18T21:10:19.473Z,8.57
2022-11-18T21:13:01.287Z,8.40
2022-11-18T21:15:29.144Z,9.05
2022-11-18T21:17:57.325Z,8.30
2022-11-18T21:20:43.059Z,8.45
2022-11-18T21:23:12.142Z,9.65
2022-11-18T21:25:41.396Z,7.43
2022-11-18T21:28:09.393Z,7.93
2022-11-18T21:30:38.123Z,7.30
2022-11-18T21:33:06.270Z,8.77
2022-11-18T21:35:34.864Z,7.78
2022-11-18T21:38:04.260Z,6.93
2022-11-18T21:40:32.260Z,9.63
2022-11-18T21:43:01.495Z,8.43
2022-11-18T21:45:29.365Z,7.18
2022-11-18T21:47:57.264Z,7.50
2022-11-18T21:50:25.132Z,7.15
2022-11-18T21:52:53.094Z,6.85
2022-11-18T21:55:21.535Z,7.97
2022-11-18T21:57:49.542Z,7.60
2022-11-18T22:00:19.523Z,7.15
2022-11-18T22:02:47.485Z,6.75
2022-11-18T22:05:16.435Z,6.43
2022-11-18T22:07:44.474Z,7.50
2022-11-18T22:10:12.366Z,6.82
2022-11-18T22:12:44.149Z,7.80
2022-11-18T22:15:12.410Z,6.95
2022-11-18T22:17:41.726Z,7.05
2022-11-18T22:20:12.460Z,7.07
2022-11-18T22:22:40.401Z,6.20
2022-11-18T22:25:08.766Z,7.15
2022-11-18T22:27:36.920Z,6.80
2022-11-18T22:30:05.570Z,6.30
2022-11-18T22:32:34.617Z,6.63
2022-11-18T22:35:03.892Z,6.63
2022-11-18T22:37:31.692Z,6.78
2022-11-18T22:39:59.449Z,7.13
2022-11-18T22:42:44.942Z,6.40
2022-11-18T22:45:12.708Z,5.85
2022-11-18T22:47:40.525Z,7.07
2022-11-18T22:50:10.799Z,5.25
2022-11-18T22:52:38.933Z,6.53
2022-11-18T22:55:07.129Z,7.38
2022-11-18T22:57:35.755Z,6.88
2022-11-18T23:00:03.939Z,7.90
2022-11-18T23:02:31.709Z,6.45
2022-11-18T23:04:59.554Z,7.63
2022-11-18T23:07:28.761Z,7.80
2022-11-18T23:09:56.629Z,7.03
2022-11-18T23:12:47.470Z,7.88
2022-11-18T23:15:15.744Z,7.50
2022-11-18T23:17:43.604Z,8.60
2022-11-18T23:20:12.439Z,8.10
2022-11-18T23:22:41.666Z,7.25
2022-11-18T23:25:09.560Z,7.35
2022-11-18T23:27:37.397Z,7.78
2022-11-18T23:30:06.302Z,7.47
2022-11-18T23:32:34.300Z,7.22
2022-11-18T23:35:02.061Z,7.05
2022-11-18T23:37:29.983Z,7.75
2022-11-18T23:39:59.067Z,7.90
2022-11-18T23:42:26.934Z,7.88
2022-11-18T23:44:56.061Z,9.05
2022-11-18T23:47:25.580Z,8.45
2022-11-18T23:49:53.477Z,7.63
2022-11-18T23:52:21.409Z,8.65
2022-11-18T23:54:51.963Z,7.40
2022-11-18T23:57:21.558Z,7.88
2022-11-18T23:59:49.450Z,7.93
